Flight Track Log - Related Links

Times and Time Zones

All times are in EDT time to prevent confusion due to time zone crossing. See the CSN3589 flight status page for this flight to view local times or setup timezone preferences in your user account.

Time Position Orientation Groundspeed Altitude Reporting Facility
EDT Latitude Longitude Course Direction KTS MPH feet Rate Location/Type
Tue 10:38:00 AM 22.7306 113.8854 36° Northeast  Level Estimated
Tue 10:39:00 AM 22.8216 113.9584 36° Northeast  Level Estimated
Tue 10:40:00 AM 22.9126 114.0315 37° Northeast  Level Estimated
Tue 10:41:00 AM 23.0036 114.1048 37° Northeast  Level Estimated
Tue 10:42:00 AM 23.0945 114.1781 37° Northeast  Level Estimated
Tue 10:43:00 AM 23.1855 114.2516 37° Northeast  Level Estimated
Tue 10:44:00 AM 23.2764 114.3251 37° Northeast  Level Estimated
Tue 10:45:00 AM 23.3672 114.3987 37° Northeast  Level Estimated
Tue 10:46:00 AM 23.4580 114.4725 37° Northeast  Level Estimated
Tue 10:47:00 AM 23.5488 114.5463 37° Northeast  Level Estimated
Tue 10:48:00 AM 23.6395 114.6203 37° Northeast  Level Estimated
Tue 10:49:00 AM 23.7302 114.6943 37° Northeast  Level Estimated
Tue 10:50:00 AM 23.8209 114.7685 37° Northeast  Level Estimated
Tue 10:51:00 AM 23.9116 114.8427 37° Northeast  Level Estimated
Tue 10:52:00 AM 24.0021 114.9171 37° Northeast  Level Estimated
Tue 10:53:00 AM 24.0927 114.9915 37° Northeast  Level Estimated
Tue 10:54:00 AM 24.1832 115.0661 37° Northeast  Level Estimated
Tue 10:55:00 AM 24.2737 115.1408 37° Northeast  Level Estimated
Tue 10:56:00 AM 24.3642 115.2156 37° Northeast  Level Estimated
Tue 10:57:00 AM 24.4546 115.2905 37° Northeast  Level Estimated
Tue 10:58:00 AM 24.5450 115.3654 37° Northeast  Level Estimated
Tue 10:59:00 AM 24.6353 115.4405 37° Northeast  Level Estimated
Tue 11:00:00 AM 24.7257 115.5157 37° Northeast  Level Estimated
Tue 11:01:00 AM 24.8159 115.5911 37° Northeast  Level Estimated
Tue 11:02:00 AM 24.9062 115.6665 37° Northeast  Level Estimated
Tue 11:03:00 AM 24.9963 115.7420 37° Northeast  Level Estimated
Tue 11:04:00 AM 25.0865 115.8177 37° Northeast  Level Estimated
Tue 11:05:00 AM 25.1766 115.8935 37° Northeast  Level Estimated
Tue 11:06:00 AM 25.2667 115.9693 37° Northeast  Level Estimated
Tue 11:07:00 AM 25.3567 116.0453 37° Northeast  Level Estimated
Tue 11:08:00 AM 25.4467 116.1214 37° Northeast  Level Estimated
Tue 11:09:00 AM 25.5367 116.1976 37° Northeast  Level Estimated
Tue 11:10:00 AM 25.6266 116.2740 37° Northeast  Level Estimated
Tue 11:11:00 AM 25.7165 116.3504 37° Northeast  Level Estimated
Tue 11:12:00 AM 25.8064 116.4270 37° Northeast  Level Estimated
Tue 11:13:00 AM 25.8962 116.5036 38° Northeast  Level Estimated
Tue 11:14:00 AM 25.9859 116.5804 38° Northeast  Level Estimated
Tue 11:15:00 AM 26.0756 116.6573 38° Northeast  Level Estimated
Tue 11:16:00 AM 26.1653 116.7344 38° Northeast  Level Estimated
Tue 11:17:00 AM 26.2550 116.8115 38° Northeast  Level Estimated
Tue 11:18:00 AM 26.3446 116.8888 38° Northeast  Level Estimated
Tue 11:19:00 AM 26.4341 116.9662 38° Northeast  Level Estimated
Tue 11:20:00 AM 26.5236 117.0437 38° Northeast  Level Estimated
Tue 11:21:00 AM 26.6131 117.1213 38° Northeast  Level Estimated
Tue 11:22:00 AM 26.7025 117.1991 38° Northeast  Level Estimated
Tue 11:23:00 AM 26.7919 117.2769 38° Northeast  Level Estimated
Tue 11:24:00 AM 26.8813 117.3549 38° Northeast  Level Estimated
Tue 11:25:00 AM 26.9706 117.4330 38° Northeast  Level Estimated
Tue 11:26:00 AM 27.0598 117.5113 38° Northeast  Level Estimated
Tue 11:27:00 AM 27.1490 117.5896 38° Northeast  Level Estimated
Tue 11:28:00 AM 27.2382 117.6681 38° Northeast  Level Estimated
Tue 11:29:00 AM 27.3274 117.7467 38° Northeast  Level Estimated
Tue 11:30:00 AM 27.4164 117.8255 38° Northeast  Level Estimated
Tue 11:31:00 AM 27.5055 117.9044 38° Northeast  Level Estimated
Tue 11:32:00 AM 27.5945 117.9834 38° Northeast  Level Estimated
Tue 11:33:00 AM 27.6834 118.0625 38° Northeast  Level Estimated
Tue 11:34:00 AM 27.7723 118.1417 38° Northeast  Level Estimated
Tue 11:35:00 AM 27.8612 118.2211 38° Northeast  Level Estimated
Tue 11:36:00 AM 27.9500 118.3006 38° Northeast  Level Estimated
Tue 11:37:00 AM 28.0388 118.3803 38° Northeast  Level Estimated
Tue 11:38:00 AM 28.1275 118.4601 38° Northeast  Level Estimated
Tue 11:39:00 AM 28.2162 118.5400 38° Northeast  Level Estimated
Tue 11:40:00 AM 28.3048 118.6200 38° Northeast  Level Estimated
Tue 11:41:00 AM 28.3934 118.7002 39° Northeast  Level Estimated
Tue 11:42:00 AM 28.4819 118.7805 39° Northeast  Level Estimated
Tue 11:43:00 AM 28.5704 118.8609 39° Northeast  Level Estimated
Tue 11:44:00 AM 28.6589 118.9415 39° Northeast  Level Estimated
Tue 11:45:00 AM 28.7473 119.0222 39° Northeast  Level Estimated
Tue 11:46:00 AM 28.8356 119.1031 39° Northeast  Level Estimated
Tue 11:47:00 AM 28.9239 119.1841 39° Northeast  Level Estimated
Tue 11:48:00 AM 29.0122 119.2652 39° Northeast  Level Estimated
Tue 11:49:00 AM 29.1004 119.3465 39° Northeast  Level Estimated
Tue 11:50:00 AM 29.1885 119.4279 39° Northeast  Level Estimated
Tue 11:51:00 AM 29.2766 119.5094 39° Northeast  Level Estimated
Tue 11:52:00 AM 29.3647 119.5911 39° Northeast  Level Estimated
Tue 11:53:00 AM 29.4527 119.6729 39° Northeast  Level Estimated
Tue 11:54:00 AM 29.5406 119.7549 39° Northeast  Level Estimated
Tue 11:55:00 AM 29.6285 119.8370 39° Northeast  Level Estimated
Tue 11:56:00 AM 29.7164 119.9193 39° Northeast  Level Estimated
Tue 11:57:00 AM 29.8042 120.0017 39° Northeast  Level Estimated
Tue 11:58:00 AM 29.8920 120.0842 39° Northeast  Level Estimated
Tue 11:59:00 AM 29.9797 120.1669 39° Northeast  Level Estimated
Tue 12:00:00 PM 30.0673 120.2497 39° Northeast  Level Estimated
Tue 12:01:00 PM 30.1549 120.3327 39° Northeast  Level Estimated
Tue 12:02:00 PM 30.2424 120.4158 39° Northeast  Level Estimated
Tue 12:03:00 PM 30.3299 120.4991 39° Northeast  Level Estimated
Tue 12:04:00 PM 30.4174 120.5826 39° Northeast  Level Estimated
Tue 12:05:00 PM 30.5047 120.6661 39° Northeast  Level Estimated
Tue 12:06:00 PM 30.5921 120.7499 40° Northeast  Level Estimated
Tue 12:07:00 PM 30.6793 120.8337 40° Northeast  Level Estimated
Tue 12:08:00 PM 30.7666 120.9178 40° Northeast  Level Estimated
Tue 12:09:00 PM 30.8537 121.0020 40° Northeast  Level Estimated
Tue 12:10:00 PM 30.9409 121.0863 40° Northeast  Level Estimated
Tue 12:11:00 PM 31.0279 121.1708 40° Northeast  Level Estimated
Tue 12:12:00 PM 31.1149 121.2554 40° Northeast  Level Estimated
Tue 12:13:00 PM 31.1979 121.3363 40° Northeast  Level Estimated
Tue 12:14:00 PM 31.1979 121.3363 North  Level Estimated
Tue 12:15:00 PM 31.1979 121.3363 North  Level Estimated
Tue 12:16:00 PM 31.1979 121.3363 North  Level Estimated
Tue 12:17:00 PM 31.1979 121.3363 North  Level Estimated
Tue 12:18:00 PM 31.1979 121.3363 North  Level Estimated
Tue 12:18:11 PM 30.9758 121.3209 North 305 351 9,900  Level FlightAware ADS-B (ZSSS / SHA)
Tue 12:18:26 PM 30.9984 121.3241 North 303 349 9,600 -1,161 Descending FlightAware ADS-B (ZSSS / SHA)
Tue 12:18:42 PM 31.0224 121.3276 North 301 346 9,300 -1,600 Descending FlightAware ADS-B (ZSSS / SHA)
Tue 12:18:56 PM 31.0410 121.3302 North 302 348 8,800 -1,600 Descending FlightAware ADS-B (ZSSS / SHA)
Tue 12:19:12 PM 31.0640 121.3334 North 300 345 8,500 -1,161 Descending FlightAware ADS-B (ZSSS / SHA)
Tue 12:19:27 PM 31.0839 121.3361 North 295 339 8,200 -1,034 Descending FlightAware ADS-B (ZSSS / SHA)
Tue 12:19:41 PM 31.1034 121.3381 North 289 333 8,000 -857 Descending FlightAware ADS-B (ZSSS / SHA)
Tue 12:19:48 PM 31.1114 121.3372 353° North 287 330 7,900 -1,091 Descending FlightAware ADS-B (ZSSS / SHA)
Tue 12:19:52 PM 31.1179 121.3354 345° North 286 329 7,800 -857 Descending FlightAware ADS-B (ZSSS / SHA)
Tue 12:20:02 PM 31.1296 121.3291 331° Northwest 283 326 7,700 -800 Descending FlightAware ADS-B (ZSSS / SHA)
Tue 12:20:07 PM 31.1348 121.3245 321° Northwest 280 322 7,600 -800 Descending FlightAware ADS-B (ZSSS / SHA)
Tue 12:20:17 PM 31.1435 121.3136 311° West 275 316 7,500 -480 Descending FlightAware ADS-B (ZSSS / SHA)
Tue 12:20:32 PM 31.1554 121.2970 311° West 262 302 7,400 -621 Descending FlightAware ADS-B (ZSSS / SHA)
Tue 12:20:46 PM 31.1664 121.2819 311° West 256 295 7,200 -581 Descending FlightAware ADS-B (ZSSS / SHA)
Tue 12:21:03 PM 31.1784 121.2654 311° West 246 283 7,100 -581 Descending FlightAware ADS-B (ZSSS / SHA)
Tue 12:21:17 PM 31.1892 121.2505 311° West 237 273 6,900 -621 Descending FlightAware ADS-B (ZSSS / SHA)
Tue 12:21:32 PM 31.1993 121.2367 313° West 230 265 6,800 -632 Descending FlightAware ADS-B (ZSSS / SHA)
Tue 12:21:36 PM 31.2033 121.2326 320° Northwest 229 264 6,700 -1,333 Descending FlightAware ADS-B (ZSSS / SHA)
Tue 12:21:41 PM 31.2071 121.2296 329° Northwest 228 262 6,600 -1,200 Descending FlightAware ADS-B (ZSSS / SHA)
Tue 12:21:51 PM 31.2169 121.2256 350° North 230 265 6,400 -1,125 Descending FlightAware ADS-B (ZSSS / SHA)
Tue 12:21:57 PM 31.2230 121.2250 357° North 228 262 6,300 -1,143 Descending FlightAware ADS-B (ZSSS / SHA)
Tue 12:22:12 PM 31.2368 121.2245 359° North 225 259 6,000 -1,000 Descending FlightAware ADS-B (ZSSS / SHA)
Tue 12:22:27 PM 31.2547 121.2237 358° North 224 258 5,800 -1,000 Descending FlightAware ADS-B (ZSSS / SHA)
Tue 12:22:42 PM 31.2702 121.2230 358° North 223 257 5,500 -1,000 Descending FlightAware ADS-B (ZSSS / SHA)
Tue 12:22:57 PM 31.2855 121.2222 358° North 216 249 5,300 -643 Descending FlightAware ADS-B (ZSSS / SHA)
Tue 12:23:10 PM 31.2981 121.2215 358° North 205 236 5,200 -600 Descending FlightAware ADS-B (ZSSS / SHA)
Tue 12:23:27 PM 31.3140 121.2206 358° North 195 224 5,000 -563 Descending FlightAware ADS-B (ZSSS / SHA)
Tue 12:23:42 PM 31.3272 121.2197 357° North 188 216 4,900 -600 Descending FlightAware ADS-B (ZSSS / SHA)
Tue 12:23:57 PM 31.3395 121.2190 357° North 186 214 4,700 -943 Descending FlightAware ADS-B (ZSSS / SHA)
Tue 12:24:52 PM 31.3885 121.2164 North 192 221 3,800 -760 Descending FlightAware ADS-B (ZSSS / SHA)
Tue 12:26:27 PM 31.4031 121.2921 138° Southeast 157 181 2,800 -623 Descending FlightAware ADS-B (ZSSL)
Tue 12:26:38 PM 31.3990 121.2960 142° Southeast 156 180 2,700 -400 Descending FlightAware ADS-B (ZSSL)
Tue 12:28:27 PM 31.3271 121.3293 177° South 143 165 2,000 -313 Descending FlightAware ADS-B (ZSSS / SHA)
Tue 12:28:52 PM 31.3117 121.3301 177° South 142 163 2,000 -273 Level FlightAware ADS-B (ZSSS / SHA)
Tue 12:29:11 PM 31.2981 121.3308 177° South 136 157 1,800 -686 Descending FlightAware ADS-B (ZSSS / SHA)
Tue 12:29:27 PM 31.2895 121.3313 177° South 135 155 1,600 -774 Descending FlightAware ADS-B (ZSSS / SHA)
Tue 12:29:42 PM 31.2789 121.3319 177° South 136 157 1,400 -600 Descending FlightAware ADS-B (ZSSS / SHA)
Tue 12:29:57 PM 31.2696 121.3324 177° South 136 157 1,300 -600 Descending FlightAware ADS-B (ZSSS / SHA)
Tue 12:30:12 PM 31.2602 121.3329 177° South 136 157 1,100 -800 Descending FlightAware ADS-B (ZSSS / SHA)
Tue 12:30:27 PM 31.2503 121.3335 177° South 138 159 900 -686 Descending FlightAware ADS-B (ZSSS / SHA)
Tue 12:30:47 PM 31.2385 121.3341 177° South 138 159 700 -545 Descending FlightAware ADS-B (ZSSS / SHA)
Tue 12:31:00 PM 31.2303 121.3347 176° South 139 160 600 -621 Descending FlightAware ADS-B (ZSSS / SHA)
Tue 12:31:16 PM 31.2198 121.3351 177° South 137 158 400 -750 Descending FlightAware ADS-B (ZSSS / SHA)
Tue 12:33:00 PM 31.1979 121.3363 177° South  Level Estimated

Login

Don't have an account? Register now (free) for customized features, flight alerts, and more!